In Rescue
 
Open Full Screen Window  High Contrast Mode
Wind Gusting 00 knots
04
July 13, 2020 11:40 PM CDT
Present Weather: Thunderstorms in the Vicinity
Weather Information
Wind Direction
  150 °
Wind Speed
  04 kt (5 mph)
Wind Gust
  00 kt (0 mph)
Altimeter
29.76 in
Visibility
10 SM
Temperature
17° C
63° F
Dewpoint
16° C
61° F
Humidity
94%
1hr Rain Fall
00.17 in.
24hr Rain Fall
00.25 in.
Sky Condition
Scattered @ 6,000 ft
Scattered @ 2,900 ft
Scattered @ 1,500 ft
VFR

METAR KCQM 140440Z AUTO 15004KT 10SM VCTS SCT015 SCT029 SCT060 17/16 A2976 RMK AO2 P0017 LTG DSNT S AND SW

FAA Disclaimer: The data displayed is for advisory purposes only and is not to be used for flight planning or operations.